sensor_id;sensor_type;location;lat;lon;timestamp;P1;durP1;ratioP1;P2;durP2;ratioP2
65172;SDS011;69059;52.218;5.172;2023-07-13T00:00:03;12.07;;;3.13;;
65172;SDS011;69059;52.218;5.172;2023-07-13T00:02:35;14.53;;;2.93;;
65172;SDS011;69059;52.218;5.172;2023-07-13T00:05:03;15.00;;;3.15;;
65172;SDS011;69059;52.218;5.172;2023-07-13T00:07:33;18.00;;;3.77;;
65172;SDS011;69059;52.218;5.172;2023-07-13T00:15:02;19.57;;;3.33;;
65172;SDS011;69059;52.218;5.172;2023-07-13T00:17:32;14.50;;;2.93;;
65172;SDS011;69059;52.218;5.172;2023-07-13T00:20:01;9.30;;;2.58;;
65172;SDS011;69059;52.218;5.172;2023-07-13T00:22:30;19.63;;;3.13;;
65172;SDS011;69059;52.218;5.172;2023-07-13T00:24:58;14.10;;;3.10;;
65172;SDS011;69059;52.218;5.172;2023-07-13T00:27:26;10.23;;;2.67;;
65172;SDS011;69059;52.218;5.172;2023-07-13T00:29:56;12.73;;;2.73;;
65172;SDS011;69059;52.218;5.172;2023-07-13T00:32:27;18.92;;;3.40;;
65172;SDS011;69059;52.218;5.172;2023-07-13T00:34:56;9.73;;;2.93;;
65172;SDS011;69059;52.218;5.172;2023-07-13T00:37:26;11.97;;;2.83;;
65172;SDS011;69059;52.218;5.172;2023-07-13T00:39:54;11.35;;;2.63;;
65172;SDS011;69059;52.218;5.172;2023-07-13T00:42:22;13.52;;;3.08;;
65172;SDS011;69059;52.218;5.172;2023-07-13T00:45:06;14.95;;;2.85;;
65172;SDS011;69059;52.218;5.172;2023-07-13T00:47:58;13.57;;;3.17;;
65172;SDS011;69059;52.218;5.172;2023-07-13T00:50:26;13.87;;;2.80;;
65172;SDS011;69059;52.218;5.172;2023-07-13T00:52:54;16.20;;;3.05;;
65172;SDS011;69059;52.218;5.172;2023-07-13T00:55:24;10.87;;;2.50;;
65172;SDS011;69059;52.218;5.172;2023-07-13T00:57:52;11.55;;;2.83;;
65172;SDS011;69059;52.218;5.172;2023-07-13T01:00:20;17.33;;;2.85;;
65172;SDS011;69059;52.218;5.172;2023-07-13T01:02:50;13.63;;;2.90;;
65172;SDS011;69059;52.218;5.172;2023-07-13T01:05:20;16.83;;;2.88;;
65172;SDS011;69059;52.218;5.172;2023-07-13T01:07:49;12.87;;;2.83;;
65172;SDS011;69059;52.218;5.172;2023-07-13T01:10:20;9.03;;;2.20;;
65172;SDS011;69059;52.218;5.172;2023-07-13T01:12:49;13.33;;;2.67;;
65172;SDS011;69059;52.218;5.172;2023-07-13T01:18:00;8.87;;;2.30;;
65172;SDS011;69059;52.218;5.172;2023-07-13T01:20:31;9.83;;;2.27;;
65172;SDS011;69059;52.218;5.172;2023-07-13T01:23:05;10.77;;;2.47;;
65172;SDS011;69059;52.218;5.172;2023-07-13T01:25:34;12.83;;;2.70;;
65172;SDS011;69059;52.218;5.172;2023-07-13T01:28:04;7.33;;;2.20;;
65172;SDS011;69059;52.218;5.172;2023-07-13T01:30:35;12.50;;;2.43;;
65172;SDS011;69059;52.218;5.172;2023-07-13T01:33:06;10.17;;;2.33;;
65172;SDS011;69059;52.218;5.172;2023-07-13T01:35:36;11.17;;;2.70;;
65172;SDS011;69059;52.218;5.172;2023-07-13T01:38:05;11.20;;;2.60;;
65172;SDS011;69059;52.218;5.172;2023-07-13T01:40:35;9.97;;;2.30;;
65172;SDS011;69059;52.218;5.172;2023-07-13T01:43:04;10.30;;;2.67;;
65172;SDS011;69059;52.218;5.172;2023-07-13T01:48:01;13.40;;;2.80;;
65172;SDS011;69059;52.218;5.172;2023-07-13T01:50:29;12.55;;;2.75;;
65172;SDS011;69059;52.218;5.172;2023-07-13T01:52:57;12.77;;;2.72;;
65172;SDS011;69059;52.218;5.172;2023-07-13T01:55:27;13.90;;;2.78;;
65172;SDS011;69059;52.218;5.172;2023-07-13T01:57:55;9.03;;;2.30;;
65172;SDS011;69059;52.218;5.172;2023-07-13T02:00:23;10.65;;;2.78;;
65172;SDS011;69059;52.218;5.172;2023-07-13T02:02:52;9.90;;;2.30;;
65172;SDS011;69059;52.218;5.172;2023-07-13T02:05:20;13.52;;;2.92;;
65172;SDS011;69059;52.218;5.172;2023-07-13T02:07:48;16.98;;;3.08;;
65172;SDS011;69059;52.218;5.172;2023-07-13T02:10:16;14.15;;;3.42;;
65172;SDS011;69059;52.218;5.172;2023-07-13T02:12:48;10.65;;;2.70;;
65172;SDS011;69059;52.218;5.172;2023-07-13T02:15:16;12.30;;;3.00;;
65172;SDS011;69059;52.218;5.172;2023-07-13T02:17:45;12.97;;;2.60;;
65172;SDS011;69059;52.218;5.172;2023-07-13T02:20:14;12.13;;;2.72;;
65172;SDS011;69059;52.218;5.172;2023-07-13T02:22:42;14.07;;;3.30;;
65172;SDS011;69059;52.218;5.172;2023-07-13T02:25:10;10.60;;;2.97;;
65172;SDS011;69059;52.218;5.172;2023-07-13T02:27:37;15.98;;;3.60;;
65172;SDS011;69059;52.218;5.172;2023-07-13T02:30:08;11.25;;;2.90;;
65172;SDS011;69059;52.218;5.172;2023-07-13T02:32:38;13.37;;;3.17;;
65172;SDS011;69059;52.218;5.172;2023-07-13T02:35:06;14.32;;;3.10;;
65172;SDS011;69059;52.218;5.172;2023-07-13T02:37:34;13.82;;;3.20;;
65172;SDS011;69059;52.218;5.172;2023-07-13T02:40:02;14.43;;;3.38;;
65172;SDS011;69059;52.218;5.172;2023-07-13T02:42:34;11.13;;;2.90;;
65172;SDS011;69059;52.218;5.172;2023-07-13T02:45:05;10.53;;;3.13;;
65172;SDS011;69059;52.218;5.172;2023-07-13T02:50:03;11.83;;;3.50;;
65172;SDS011;69059;52.218;5.172;2023-07-13T02:52:31;14.15;;;3.63;;
65172;SDS011;69059;52.218;5.172;2023-07-13T02:54:59;15.48;;;3.30;;
65172;SDS011;69059;52.218;5.172;2023-07-13T02:57:27;13.50;;;2.97;;
65172;SDS011;69059;52.218;5.172;2023-07-13T02:59:57;14.77;;;3.53;;
65172;SDS011;69059;52.218;5.172;2023-07-13T03:02:25;12.15;;;2.97;;
65172;SDS011;69059;52.218;5.172;2023-07-13T03:04:56;11.17;;;3.37;;
65172;SDS011;69059;52.218;5.172;2023-07-13T03:07:24;12.50;;;3.20;;
65172;SDS011;69059;52.218;5.172;2023-07-13T03:09:53;11.68;;;3.17;;
65172;SDS011;69059;52.218;5.172;2023-07-13T03:12:21;13.47;;;3.03;;
65172;SDS011;69059;52.218;5.172;2023-07-13T03:14:50;11.07;;;2.40;;
65172;SDS011;69059;52.218;5.172;2023-07-13T03:17:18;16.98;;;2.85;;
65172;SDS011;69059;52.218;5.172;2023-07-13T03:19:47;11.88;;;2.50;;
65172;SDS011;69059;52.218;5.172;2023-07-13T03:22:17;9.60;;;2.33;;
65172;SDS011;69059;52.218;5.172;2023-07-13T03:24:45;9.63;;;2.40;;
65172;SDS011;69059;52.218;5.172;2023-07-13T03:27:15;11.20;;;2.60;;
65172;SDS011;69059;52.218;5.172;2023-07-13T03:32:11;15.02;;;2.55;;
65172;SDS011;69059;52.218;5.172;2023-07-13T03:34:39;8.98;;;2.05;;
65172;SDS011;69059;52.218;5.172;2023-07-13T03:37:07;13.70;;;2.78;;
65172;SDS011;69059;52.218;5.172;2023-07-13T03:39:37;8.75;;;2.17;;
65172;SDS011;69059;52.218;5.172;2023-07-13T03:42:05;10.17;;;2.47;;
65172;SDS011;69059;52.218;5.172;2023-07-13T03:44:34;10.63;;;2.97;;
65172;SDS011;69059;52.218;5.172;2023-07-13T03:47:03;10.67;;;2.87;;
65172;SDS011;69059;52.218;5.172;2023-07-13T03:49:32;12.67;;;3.30;;
65172;SDS011;69059;52.218;5.172;2023-07-13T03:52:00;11.63;;;3.05;;
65172;SDS011;69059;52.218;5.172;2023-07-13T03:54:28;14.52;;;3.72;;
65172;SDS011;69059;52.218;5.172;2023-07-13T03:59:26;13.13;;;2.77;;
65172;SDS011;69059;52.218;5.172;2023-07-13T04:01:54;9.07;;;2.90;;
65172;SDS011;69059;52.218;5.172;2023-07-13T04:04:22;15.05;;;3.25;;
65172;SDS011;69059;52.218;5.172;2023-07-13T04:06:50;11.85;;;3.33;;
65172;SDS011;69059;52.218;5.172;2023-07-13T04:09:19;17.17;;;2.92;;
65172;SDS011;69059;52.218;5.172;2023-07-13T04:11:47;13.38;;;3.45;;
65172;SDS011;69059;52.218;5.172;2023-07-13T04:14:16;11.68;;;2.88;;
65172;SDS011;69059;52.218;5.172;2023-07-13T04:16:45;12.37;;;2.60;;
65172;SDS011;69059;52.218;5.172;2023-07-13T04:19:13;15.40;;;2.75;;
65172;SDS011;69059;52.218;5.172;2023-07-13T04:21:41;12.73;;;2.85;;
65172;SDS011;69059;52.218;5.172;2023-07-13T04:24:09;11.60;;;2.63;;
65172;SDS011;69059;52.218;5.172;2023-07-13T04:26:37;16.27;;;3.08;;
65172;SDS011;69059;52.218;5.172;2023-07-13T04:29:06;12.60;;;3.10;;
65172;SDS011;69059;52.218;5.172;2023-07-13T04:31:35;14.98;;;3.25;;
65172;SDS011;69059;52.218;5.172;2023-07-13T04:34:04;13.57;;;2.83;;
65172;SDS011;69059;52.218;5.172;2023-07-13T04:36:32;11.77;;;3.22;;
65172;SDS011;69059;52.218;5.172;2023-07-13T04:39:04;12.73;;;3.33;;
65172;SDS011;69059;52.218;5.172;2023-07-13T04:41:33;17.37;;;3.77;;
65172;SDS011;69059;52.218;5.172;2023-07-13T04:44:01;13.32;;;3.42;;
65172;SDS011;69059;52.218;5.172;2023-07-13T04:46:29;12.25;;;3.30;;
65172;SDS011;69059;52.218;5.172;2023-07-13T04:48:59;14.85;;;4.40;;
65172;SDS011;69059;52.218;5.172;2023-07-13T04:51:27;17.50;;;3.60;;
65172;SDS011;69059;52.218;5.172;2023-07-13T04:53:55;14.40;;;3.85;;
65172;SDS011;69059;52.218;5.172;2023-07-13T04:56:26;17.97;;;4.17;;
65172;SDS011;69059;52.218;5.172;2023-07-13T04:58:55;15.65;;;4.35;;
65172;SDS011;69059;52.218;5.172;2023-07-13T05:01:25;15.77;;;4.10;;
65172;SDS011;69059;52.218;5.172;2023-07-13T05:03:53;17.45;;;4.03;;
65172;SDS011;69059;52.218;5.172;2023-07-13T05:06:24;20.00;;;4.53;;
65172;SDS011;69059;52.218;5.172;2023-07-13T05:08:52;20.07;;;4.60;;
65172;SDS011;69059;52.218;5.172;2023-07-13T05:11:20;20.27;;;4.85;;
65172;SDS011;69059;52.218;5.172;2023-07-13T05:13:48;19.88;;;5.07;;
65172;SDS011;69059;52.218;5.172;2023-07-13T05:16:16;19.88;;;4.97;;
65172;SDS011;69059;52.218;5.172;2023-07-13T05:18:45;16.60;;;4.90;;
65172;SDS011;69059;52.218;5.172;2023-07-13T05:21:13;20.70;;;5.43;;
65172;SDS011;69059;52.218;5.172;2023-07-13T05:23:42;18.98;;;5.05;;
65172;SDS011;69059;52.218;5.172;2023-07-13T05:26:10;18.77;;;4.93;;
65172;SDS011;69059;52.218;5.172;2023-07-13T05:28:39;16.65;;;5.45;;
65172;SDS011;69059;52.218;5.172;2023-07-13T05:31:07;23.13;;;5.72;;
65172;SDS011;69059;52.218;5.172;2023-07-13T05:33:36;17.50;;;4.67;;
65172;SDS011;69059;52.218;5.172;2023-07-13T05:36:04;16.27;;;4.90;;
65172;SDS011;69059;52.218;5.172;2023-07-13T05:38:33;21.57;;;5.07;;
65172;SDS011;69059;52.218;5.172;2023-07-13T05:41:03;17.92;;;5.00;;
65172;SDS011;69059;52.218;5.172;2023-07-13T05:43:31;19.57;;;5.50;;
65172;SDS011;69059;52.218;5.172;2023-07-13T05:46:00;18.20;;;5.13;;
65172;SDS011;69059;52.218;5.172;2023-07-13T05:48:28;21.20;;;5.88;;
65172;SDS011;69059;52.218;5.172;2023-07-13T05:50:56;15.75;;;5.30;;
65172;SDS011;69059;52.218;5.172;2023-07-13T05:53:24;18.90;;;4.82;;
65172;SDS011;69059;52.218;5.172;2023-07-13T05:55:53;20.83;;;5.22;;
65172;SDS011;69059;52.218;5.172;2023-07-13T05:58:26;20.63;;;5.30;;
65172;SDS011;69059;52.218;5.172;2023-07-13T06:00:59;19.53;;;5.10;;
65172;SDS011;69059;52.218;5.172;2023-07-13T06:03:28;17.93;;;5.20;;
65172;SDS011;69059;52.218;5.172;2023-07-13T06:05:56;20.15;;;5.07;;
65172;SDS011;69059;52.218;5.172;2023-07-13T06:08:27;17.13;;;4.85;;
65172;SDS011;69059;52.218;5.172;2023-07-13T06:11:01;20.03;;;5.10;;
65172;SDS011;69059;52.218;5.172;2023-07-13T06:13:32;16.73;;;5.00;;
65172;SDS011;69059;52.218;5.172;2023-07-13T06:16:01;20.08;;;6.47;;
65172;SDS011;69059;52.218;5.172;2023-07-13T06:18:31;17.70;;;5.90;;
65172;SDS011;69059;52.218;5.172;2023-07-13T06:20:59;22.67;;;5.97;;
65172;SDS011;69059;52.218;5.172;2023-07-13T06:23:27;20.40;;;6.15;;
65172;SDS011;69059;52.218;5.172;2023-07-13T06:25:55;27.63;;;6.45;;
65172;SDS011;69059;52.218;5.172;2023-07-13T06:28:23;21.90;;;6.18;;
65172;SDS011;69059;52.218;5.172;2023-07-13T06:30:53;17.88;;;6.00;;
65172;SDS011;69059;52.218;5.172;2023-07-13T06:33:21;23.50;;;6.30;;
65172;SDS011;69059;52.218;5.172;2023-07-13T06:35:49;16.50;;;5.03;;
65172;SDS011;69059;52.218;5.172;2023-07-13T06:38:17;19.88;;;5.75;;
65172;SDS011;69059;52.218;5.172;2023-07-13T06:40:46;19.67;;;5.22;;
65172;SDS011;69059;52.218;5.172;2023-07-13T06:43:14;20.05;;;5.57;;
65172;SDS011;69059;52.218;5.172;2023-07-13T06:45:43;14.57;;;4.65;;
65172;SDS011;69059;52.218;5.172;2023-07-13T06:48:16;18.90;;;5.22;;
65172;SDS011;69059;52.218;5.172;2023-07-13T06:50:46;19.02;;;4.60;;
65172;SDS011;69059;52.218;5.172;2023-07-13T06:53:16;32.38;;;6.43;;
65172;SDS011;69059;52.218;5.172;2023-07-13T06:55:46;14.63;;;4.43;;
65172;SDS011;69059;52.218;5.172;2023-07-13T07:00:42;22.92;;;6.57;;
65172;SDS011;69059;52.218;5.172;2023-07-13T07:03:11;24.35;;;7.70;;
65172;SDS011;69059;52.218;5.172;2023-07-13T07:08:09;24.30;;;6.35;;
65172;SDS011;69059;52.218;5.172;2023-07-13T07:10:37;25.25;;;5.68;;
65172;SDS011;69059;52.218;5.172;2023-07-13T07:13:05;19.15;;;7.15;;
65172;SDS011;69059;52.218;5.172;2023-07-13T07:15:33;22.73;;;7.25;;
65172;SDS011;69059;52.218;5.172;2023-07-13T07:18:02;10.10;;;3.50;;
65172;SDS011;69059;52.218;5.172;2023-07-13T07:20:31;8.05;;;3.20;;
65172;SDS011;69059;52.218;5.172;2023-07-13T07:23:00;7.00;;;2.85;;
65172;SDS011;69059;52.218;5.172;2023-07-13T07:25:28;8.60;;;2.57;;
65172;SDS011;69059;52.218;5.172;2023-07-13T07:27:58;6.07;;;2.80;;
65172;SDS011;69059;52.218;5.172;2023-07-13T07:30:29;4.93;;;2.30;;
65172;SDS011;69059;52.218;5.172;2023-07-13T07:33:00;5.63;;;2.70;;
65172;SDS011;69059;52.218;5.172;2023-07-13T07:35:31;7.70;;;2.70;;
65172;SDS011;69059;52.218;5.172;2023-07-13T07:38:05;5.70;;;2.40;;
65172;SDS011;69059;52.218;5.172;2023-07-13T07:40:36;6.77;;;2.70;;
65172;SDS011;69059;52.218;5.172;2023-07-13T07:43:07;7.20;;;2.80;;
65172;SDS011;69059;52.218;5.172;2023-07-13T07:45:36;5.67;;;2.80;;
65172;SDS011;69059;52.218;5.172;2023-07-13T07:48:05;8.98;;;2.80;;
65172;SDS011;69059;52.218;5.172;2023-07-13T07:50:36;10.20;;;3.37;;
65172;SDS011;69059;52.218;5.172;2023-07-13T07:53:06;7.43;;;3.37;;
65172;SDS011;69059;52.218;5.172;2023-07-13T07:55:36;6.90;;;3.20;;
65172;SDS011;69059;52.218;5.172;2023-07-13T07:58:07;7.95;;;4.22;;
65172;SDS011;69059;52.218;5.172;2023-07-13T08:01:01;8.93;;;4.40;;
65172;SDS011;69059;52.218;5.172;2023-07-13T08:03:33;12.15;;;4.95;;
65172;SDS011;69059;52.218;5.172;2023-07-13T08:06:04;9.25;;;4.80;;
65172;SDS011;69059;52.218;5.172;2023-07-13T08:08:36;12.15;;;5.22;;
65172;SDS011;69059;52.218;5.172;2023-07-13T08:11:04;11.13;;;4.65;;
65172;SDS011;69059;52.218;5.172;2023-07-13T08:13:37;11.65;;;5.40;;
65172;SDS011;69059;52.218;5.172;2023-07-13T08:16:05;8.95;;;4.40;;
65172;SDS011;69059;52.218;5.172;2023-07-13T08:18:34;9.88;;;3.60;;
65172;SDS011;69059;52.218;5.172;2023-07-13T08:21:05;9.68;;;4.20;;
65172;SDS011;69059;52.218;5.172;2023-07-13T08:23:36;12.80;;;4.65;;
65172;SDS011;69059;52.218;5.172;2023-07-13T08:26:05;12.18;;;5.00;;
65172;SDS011;69059;52.218;5.172;2023-07-13T08:28:33;12.88;;;5.15;;
65172;SDS011;69059;52.218;5.172;2023-07-13T08:31:01;16.30;;;6.28;;
65172;SDS011;69059;52.218;5.172;2023-07-13T08:33:29;14.27;;;6.32;;
65172;SDS011;69059;52.218;5.172;2023-07-13T08:35:58;13.55;;;4.32;;
65172;SDS011;69059;52.218;5.172;2023-07-13T08:38:25;7.93;;;2.78;;
65172;SDS011;69059;52.218;5.172;2023-07-13T08:40:55;4.53;;;2.20;;
65172;SDS011;69059;52.218;5.172;2023-07-13T08:43:25;9.05;;;2.80;;
65172;SDS011;69059;52.218;5.172;2023-07-13T08:45:57;7.17;;;3.07;;
65172;SDS011;69059;52.218;5.172;2023-07-13T08:48:31;7.43;;;3.70;;
65172;SDS011;69059;52.218;5.172;2023-07-13T08:51:02;7.43;;;3.60;;
65172;SDS011;69059;52.218;5.172;2023-07-13T08:53:38;9.00;;;4.13;;
65172;SDS011;69059;52.218;5.172;2023-07-13T08:56:14;5.27;;;2.83;;
65172;SDS011;69059;52.218;5.172;2023-07-13T08:58:45;7.93;;;2.88;;
65172;SDS011;69059;52.218;5.172;2023-07-13T09:01:18;4.55;;;2.33;;
65172;SDS011;69059;52.218;5.172;2023-07-13T09:03:53;4.45;;;2.72;;
65172;SDS011;69059;52.218;5.172;2023-07-13T09:06:27;4.85;;;2.17;;
65172;SDS011;69059;52.218;5.172;2023-07-13T09:09:09;2.90;;;2.30;;
65172;SDS011;69059;52.218;5.172;2023-07-13T09:11:49;7.55;;;2.45;;
65172;SDS011;69059;52.218;5.172;2023-07-13T09:14:33;4.57;;;2.53;;
65172;SDS011;69059;52.218;5.172;2023-07-13T09:17:10;6.63;;;2.80;;
65172;SDS011;69059;52.218;5.172;2023-07-13T09:19:42;7.68;;;3.20;;
65172;SDS011;69059;52.218;5.172;2023-07-13T09:22:14;6.47;;;2.83;;
65172;SDS011;69059;52.218;5.172;2023-07-13T09:24:51;7.47;;;3.00;;
65172;SDS011;69059;52.218;5.172;2023-07-13T09:27:26;6.32;;;3.38;;
65172;SDS011;69059;52.218;5.172;2023-07-13T09:30:02;6.97;;;3.40;;
65172;SDS011;69059;52.218;5.172;2023-07-13T09:32:47;13.75;;;4.63;;
65172;SDS011;69059;52.218;5.172;2023-07-13T09:35:19;6.97;;;3.15;;
65172;SDS011;69059;52.218;5.172;2023-07-13T09:37:50;5.95;;;3.25;;
65172;SDS011;69059;52.218;5.172;2023-07-13T09:40:20;6.70;;;2.70;;
65172;SDS011;69059;52.218;5.172;2023-07-13T09:42:54;6.43;;;3.22;;
65172;SDS011;69059;52.218;5.172;2023-07-13T09:45:29;9.48;;;3.40;;
65172;SDS011;69059;52.218;5.172;2023-07-13T09:48:04;10.15;;;3.58;;
65172;SDS011;69059;52.218;5.172;2023-07-13T09:50:34;7.25;;;3.50;;
65172;SDS011;69059;52.218;5.172;2023-07-13T09:53:03;6.25;;;3.25;;
65172;SDS011;69059;52.218;5.172;2023-07-13T09:55:34;11.18;;;3.65;;
65172;SDS011;69059;52.218;5.172;2023-07-13T09:58:08;6.65;;;3.25;;
65172;SDS011;69059;52.218;5.172;2023-07-13T10:00:38;8.40;;;3.53;;
65172;SDS011;69059;52.218;5.172;2023-07-13T10:03:14;8.68;;;3.80;;
65172;SDS011;69059;52.218;5.172;2023-07-13T10:05:46;11.90;;;3.33;;
65172;SDS011;69059;52.218;5.172;2023-07-13T10:08:17;10.90;;;4.47;;
65172;SDS011;69059;52.218;5.172;2023-07-13T10:10:51;6.57;;;3.35;;
65172;SDS011;69059;52.218;5.172;2023-07-13T10:13:27;8.00;;;2.80;;
65172;SDS011;69059;52.218;5.172;2023-07-13T10:15:58;9.48;;;2.97;;
65172;SDS011;69059;52.218;5.172;2023-07-13T10:18:27;9.70;;;3.28;;
65172;SDS011;69059;52.218;5.172;2023-07-13T10:20:59;7.25;;;2.60;;
65172;SDS011;69059;52.218;5.172;2023-07-13T10:23:59;6.60;;;2.90;;
65172;SDS011;69059;52.218;5.172;2023-07-13T10:26:34;7.95;;;3.03;;
65172;SDS011;69059;52.218;5.172;2023-07-13T10:29:03;7.57;;;3.05;;
65172;SDS011;69059;52.218;5.172;2023-07-13T10:31:37;19.45;;;4.85;;
65172;SDS011;69059;52.218;5.172;2023-07-13T10:34:08;8.82;;;3.30;;
65172;SDS011;69059;52.218;5.172;2023-07-13T10:36:39;9.07;;;3.58;;
65172;SDS011;69059;52.218;5.172;2023-07-13T10:39:10;6.85;;;2.88;;
65172;SDS011;69059;52.218;5.172;2023-07-13T10:41:46;8.05;;;3.00;;
65172;SDS011;69059;52.218;5.172;2023-07-13T10:44:21;7.13;;;2.80;;
65172;SDS011;69059;52.218;5.172;2023-07-13T10:46:55;6.97;;;3.20;;
65172;SDS011;69059;52.218;5.172;2023-07-13T10:49:26;8.35;;;3.05;;
65172;SDS011;69059;52.218;5.172;2023-07-13T10:51:57;7.55;;;2.90;;
65172;SDS011;69059;52.218;5.172;2023-07-13T10:54:31;7.82;;;3.17;;
65172;SDS011;69059;52.218;5.172;2023-07-13T10:57:08;7.47;;;2.45;;
65172;SDS011;69059;52.218;5.172;2023-07-13T10:59:47;10.52;;;3.45;;
65172;SDS011;69059;52.218;5.172;2023-07-13T11:02:24;6.65;;;2.80;;
65172;SDS011;69059;52.218;5.172;2023-07-13T11:04:55;8.32;;;2.83;;
65172;SDS011;69059;52.218;5.172;2023-07-13T11:07:26;8.70;;;2.42;;
65172;SDS011;69059;52.218;5.172;2023-07-13T11:09:56;7.18;;;2.70;;
65172;SDS011;69059;52.218;5.172;2023-07-13T11:15:30;8.00;;;2.30;;
65172;SDS011;69059;52.218;5.172;2023-07-13T11:18:04;7.32;;;2.67;;
65172;SDS011;69059;52.218;5.172;2023-07-13T11:20:46;8.15;;;2.85;;
65172;SDS011;69059;52.218;5.172;2023-07-13T11:23:20;5.90;;;2.70;;
65172;SDS011;69059;52.218;5.172;2023-07-13T11:25:56;8.98;;;2.60;;
65172;SDS011;69059;52.218;5.172;2023-07-13T11:28:27;5.43;;;2.30;;
65172;SDS011;69059;52.218;5.172;2023-07-13T11:31:02;5.65;;;2.33;;
65172;SDS011;69059;52.218;5.172;2023-07-13T11:33:52;6.88;;;2.13;;
65172;SDS011;69059;52.218;5.172;2023-07-13T11:36:27;10.52;;;2.33;;
65172;SDS011;69059;52.218;5.172;2023-07-13T11:39:01;4.68;;;2.10;;
65172;SDS011;69059;52.218;5.172;2023-07-13T11:41:34;7.18;;;2.30;;
65172;SDS011;69059;52.218;5.172;2023-07-13T11:44:11;4.10;;;1.95;;
65172;SDS011;69059;52.218;5.172;2023-07-13T11:46:46;4.03;;;2.30;;
65172;SDS011;69059;52.218;5.172;2023-07-13T11:49:18;4.93;;;1.80;;
65172;SDS011;69059;52.218;5.172;2023-07-13T11:51:50;6.13;;;2.25;;
65172;SDS011;69059;52.218;5.172;2023-07-13T11:54:24;7.30;;;2.20;;
65172;SDS011;69059;52.218;5.172;2023-07-13T11:56:57;6.97;;;2.10;;
65172;SDS011;69059;52.218;5.172;2023-07-13T11:59:30;5.55;;;2.42;;
65172;SDS011;69059;52.218;5.172;2023-07-13T12:02:01;5.22;;;2.10;;
65172;SDS011;69059;52.218;5.172;2023-07-13T12:04:31;7.38;;;2.05;;
65172;SDS011;69059;52.218;5.172;2023-07-13T12:07:06;6.90;;;2.25;;
65172;SDS011;69059;52.218;5.172;2023-07-13T12:09:36;5.50;;;2.10;;
65172;SDS011;69059;52.218;5.172;2023-07-13T12:12:09;4.35;;;1.90;;
65172;SDS011;69059;52.218;5.172;2023-07-13T12:14:39;8.65;;;2.10;;
65172;SDS011;69059;52.218;5.172;2023-07-13T12:17:09;9.40;;;2.10;;
65172;SDS011;69059;52.218;5.172;2023-07-13T12:19:47;6.60;;;2.40;;
65172;SDS011;69059;52.218;5.172;2023-07-13T12:22:16;5.47;;;1.95;;
65172;SDS011;69059;52.218;5.172;2023-07-13T12:24:45;7.35;;;1.92;;
65172;SDS011;69059;52.218;5.172;2023-07-13T12:27:18;5.28;;;2.00;;
65172;SDS011;69059;52.218;5.172;2023-07-13T12:29:49;4.63;;;2.05;;
65172;SDS011;69059;52.218;5.172;2023-07-13T12:32:21;9.15;;;2.38;;
65172;SDS011;69059;52.218;5.172;2023-07-13T12:34:52;5.22;;;2.30;;
65172;SDS011;69059;52.218;5.172;2023-07-13T12:37:22;5.82;;;2.20;;
65172;SDS011;69059;52.218;5.172;2023-07-13T12:39:52;3.95;;;1.95;;
65172;SDS011;69059;52.218;5.172;2023-07-13T12:42:22;5.30;;;2.20;;
65172;SDS011;69059;52.218;5.172;2023-07-13T12:44:54;5.03;;;2.38;;
65172;SDS011;69059;52.218;5.172;2023-07-13T12:47:26;6.50;;;2.15;;
65172;SDS011;69059;52.218;5.172;2023-07-13T12:49:56;6.10;;;2.03;;
65172;SDS011;69059;52.218;5.172;2023-07-13T12:52:28;7.07;;;2.13;;
65172;SDS011;69059;52.218;5.172;2023-07-13T12:55:03;7.40;;;2.53;;
65172;SDS011;69059;52.218;5.172;2023-07-13T12:57:38;5.90;;;2.50;;
65172;SDS011;69059;52.218;5.172;2023-07-13T13:00:14;8.15;;;2.50;;
65172;SDS011;69059;52.218;5.172;2023-07-13T13:02:52;5.63;;;2.22;;
65172;SDS011;69059;52.218;5.172;2023-07-13T13:05:41;7.35;;;2.70;;
65172;SDS011;69059;52.218;5.172;2023-07-13T13:08:10;6.63;;;2.50;;
65172;SDS011;69059;52.218;5.172;2023-07-13T13:10:39;5.95;;;2.50;;
65172;SDS011;69059;52.218;5.172;2023-07-13T13:13:08;6.65;;;2.47;;
65172;SDS011;69059;52.218;5.172;2023-07-13T13:15:37;6.78;;;2.78;;
65172;SDS011;69059;52.218;5.172;2023-07-13T13:18:10;5.72;;;2.35;;
65172;SDS011;69059;52.218;5.172;2023-07-13T13:20:44;6.03;;;2.35;;
65172;SDS011;69059;52.218;5.172;2023-07-13T13:23:13;7.03;;;2.33;;
65172;SDS011;69059;52.218;5.172;2023-07-13T13:25:44;6.93;;;2.40;;
65172;SDS011;69059;52.218;5.172;2023-07-13T13:28:14;5.55;;;2.08;;
65172;SDS011;69059;52.218;5.172;2023-07-13T13:30:44;5.60;;;2.20;;
65172;SDS011;69059;52.218;5.172;2023-07-13T13:36:01;7.13;;;2.30;;
65172;SDS011;69059;52.218;5.172;2023-07-13T13:38:30;3.97;;;2.20;;
65172;SDS011;69059;52.218;5.172;2023-07-13T13:40:58;8.63;;;2.67;;
65172;SDS011;69059;52.218;5.172;2023-07-13T13:43:26;3.47;;;2.03;;
65172;SDS011;69059;52.218;5.172;2023-07-13T13:45:55;11.15;;;3.03;;
65172;SDS011;69059;52.218;5.172;2023-07-13T13:48:26;5.13;;;2.40;;
65172;SDS011;69059;52.218;5.172;2023-07-13T13:51:00;5.28;;;2.22;;
65172;SDS011;69059;52.218;5.172;2023-07-13T13:53:33;4.82;;;2.22;;
65172;SDS011;69059;52.218;5.172;2023-07-13T13:56:01;4.85;;;2.03;;
65172;SDS011;69059;52.218;5.172;2023-07-13T14:00:57;5.07;;;2.10;;
65172;SDS011;69059;52.218;5.172;2023-07-13T14:05:54;5.20;;;2.13;;
65172;SDS011;69059;52.218;5.172;2023-07-13T14:08:25;4.45;;;1.90;;
65172;SDS011;69059;52.218;5.172;2023-07-13T14:10:54;5.78;;;1.95;;
65172;SDS011;69059;52.218;5.172;2023-07-13T14:13:26;5.35;;;2.10;;
65172;SDS011;69059;52.218;5.172;2023-07-13T14:15:59;5.13;;;1.70;;
65172;SDS011;69059;52.218;5.172;2023-07-13T14:20:54;3.20;;;1.80;;
65172;SDS011;69059;52.218;5.172;2023-07-13T14:25:51;3.90;;;1.65;;
65172;SDS011;69059;52.218;5.172;2023-07-13T14:28:21;5.05;;;1.80;;
65172;SDS011;69059;52.218;5.172;2023-07-13T14:30:51;3.95;;;1.70;;
65172;SDS011;69059;52.218;5.172;2023-07-13T14:33:21;4.75;;;1.80;;
65172;SDS011;69059;52.218;5.172;2023-07-13T14:35:49;3.63;;;1.65;;
65172;SDS011;69059;52.218;5.172;2023-07-13T14:38:19;4.15;;;1.70;;
65172;SDS011;69059;52.218;5.172;2023-07-13T14:40:48;3.80;;;2.00;;
65172;SDS011;69059;52.218;5.172;2023-07-13T14:45:46;4.72;;;2.13;;
65172;SDS011;69059;52.218;5.172;2023-07-13T14:48:17;6.15;;;1.95;;
65172;SDS011;69059;52.218;5.172;2023-07-13T14:50:49;4.85;;;1.95;;
65172;SDS011;69059;52.218;5.172;2023-07-13T14:53:20;5.68;;;1.95;;
65172;SDS011;69059;52.218;5.172;2023-07-13T14:55:49;5.70;;;1.70;;
65172;SDS011;69059;52.218;5.172;2023-07-13T14:58:19;4.97;;;1.88;;
65172;SDS011;69059;52.218;5.172;2023-07-13T15:00:47;4.15;;;1.80;;
65172;SDS011;69059;52.218;5.172;2023-07-13T15:03:18;3.53;;;1.80;;
65172;SDS011;69059;52.218;5.172;2023-07-13T15:05:49;5.85;;;1.83;;
65172;SDS011;69059;52.218;5.172;2023-07-13T15:08:17;4.43;;;1.73;;
65172;SDS011;69059;52.218;5.172;2023-07-13T15:13:14;2.67;;;1.70;;
65172;SDS011;69059;52.218;5.172;2023-07-13T15:15:45;3.90;;;1.67;;
65172;SDS011;69059;52.218;5.172;2023-07-13T15:18:15;4.68;;;1.88;;
65172;SDS011;69059;52.218;5.172;2023-07-13T15:20:46;3.05;;;1.38;;
65172;SDS011;69059;52.218;5.172;2023-07-13T15:23:16;2.47;;;1.13;;
65172;SDS011;69059;52.218;5.172;2023-07-13T15:25:45;4.10;;;1.30;;
65172;SDS011;69059;52.218;5.172;2023-07-13T15:28:13;2.45;;;1.50;;
65172;SDS011;69059;52.218;5.172;2023-07-13T15:30:42;5.07;;;1.52;;
65172;SDS011;69059;52.218;5.172;2023-07-13T15:33:14;3.90;;;1.70;;
65172;SDS011;69059;52.218;5.172;2023-07-13T15:35:44;2.38;;;1.60;;
65172;SDS011;69059;52.218;5.172;2023-07-13T15:38:15;5.22;;;1.58;;
65172;SDS011;69059;52.218;5.172;2023-07-13T15:40:45;3.50;;;1.70;;
65172;SDS011;69059;52.218;5.172;2023-07-13T15:43:15;3.88;;;1.65;;